Time;durP1;ratioP1;P1;durP2;ratioP2;P2;SDS_P1;SDS_P2;PMS_P1;PMS_P2;Temp;Humidity;BMP_temperature;BMP_pressure;BME280_temperature;BME280_humidity;BME280_pressure;Samples;Min_cycle;Max_cycle;Signal;HPM_P1;HPM_P2
2019/05/24 00:06:15;;;;;;;3.33;2.47;;;;;;;20.14;48.20;100529.00;;;;-54
2019/05/24 00:09:19;;;;;;;2.47;2.20;;;;;;;20.14;48.15;100524.53;;;;-54
2019/05/24 00:12:15;;;;;;;3.32;2.37;;;;;;;20.13;48.16;100522.91;;;;-54
2019/05/24 00:15:13;;;;;;;3.63;2.38;;;;;;;20.12;48.15;100516.06;;;;-54
2019/05/24 00:18:13;;;;;;;2.49;2.24;;;;;;;20.12;48.20;100517.23;;;;-54
2019/05/24 00:21:13;;;;;;;3.22;2.29;;;;;;;20.12;48.24;100513.89;;;;-54
2019/05/24 00:24:13;;;;;;;2.43;2.23;;;;;;;20.11;48.15;100513.00;;;;-54
2019/05/24 00:27:13;;;;;;;2.61;2.41;;;;;;;20.10;48.17;100507.53;;;;-54
2019/05/24 00:30:13;;;;;;;2.46;2.26;;;;;;;20.10;48.13;100509.38;;;;-54
2019/05/24 00:33:13;;;;;;;2.79;2.22;;;;;;;20.10;48.19;100510.05;;;;-53
2019/05/24 00:36:13;;;;;;;2.55;2.35;;;;;;;20.10;48.23;100506.86;;;;-54
2019/05/24 00:39:13;;;;;;;2.98;2.49;;;;;;;20.08;48.13;100500.47;;;;-54
2019/05/24 00:42:13;;;;;;;2.62;2.32;;;;;;;20.09;48.13;100495.31;;;;-54
2019/05/24 00:45:13;;;;;;;2.22;2.09;;;;;;;20.08;48.15;100488.33;;;;-54
2019/05/24 00:48:13;;;;;;;2.50;2.30;;;;;;;20.08;48.16;100489.73;;;;-54
2019/05/24 00:51:13;;;;;;;2.47;2.27;;;;;;;20.07;48.08;100484.60;;;;-54
2019/05/24 00:54:13;;;;;;;2.59;2.39;;;;;;;20.07;48.15;100480.81;;;;-54
2019/05/24 00:57:13;;;;;;;2.95;2.31;;;;;;;20.06;48.15;100473.55;;;;-54
2019/05/24 01:00:13;;;;;;;2.51;2.31;;;;;;;20.06;48.04;100468.73;;;;-54
2019/05/24 01:03:13;;;;;;;2.51;2.30;;;;;;;20.05;48.21;100465.97;;;;-54
2019/05/24 01:06:13;;;;;;;2.50;2.30;;;;;;;20.04;48.10;100467.71;;;;-54
2019/05/24 01:09:13;;;;;;;2.64;2.35;;;;;;;20.04;48.10;100469.98;;;;-54
2019/05/24 01:12:13;;;;;;;2.58;2.38;;;;;;;20.04;48.11;100470.89;;;;-54
2019/05/24 01:15:13;;;;;;;2.50;2.30;;;;;;;20.03;48.10;100474.03;;;;-54
2019/05/24 01:18:13;;;;;;;2.61;2.41;;;;;;;20.03;48.13;100472.96;;;;-54
2019/05/24 01:21:13;;;;;;;2.73;2.15;;;;;;;20.03;48.12;100471.08;;;;-59
2019/05/24 01:24:13;;;;;;;2.59;2.39;;;;;;;20.02;48.03;100477.45;;;;-60
2019/05/24 01:27:13;;;;;;;2.55;2.35;;;;;;;20.02;48.06;100479.19;;;;-60
2019/05/24 01:30:13;;;;;;;2.59;2.39;;;;;;;20.02;48.05;100478.08;;;;-59
2019/05/24 01:33:13;;;;;;;2.50;2.30;;;;;;;20.02;48.07;100475.40;;;;-60
2019/05/24 01:36:13;;;;;;;2.31;2.11;;;;;;;20.01;48.07;100473.34;;;;-59
2019/05/24 01:39:13;;;;;;;2.41;2.21;;;;;;;20.01;48.04;100474.69;;;;-60
2019/05/24 01:42:13;;;;;;;2.43;2.23;;;;;;;20.00;48.02;100473.24;;;;-60
2019/05/24 01:45:13;;;;;;;2.40;2.20;;;;;;;20.00;48.06;100472.80;;;;-59
2019/05/24 01:48:13;;;;;;;2.47;2.29;;;;;;;19.99;48.11;100471.02;;;;-60
2019/05/24 01:51:13;;;;;;;2.63;2.43;;;;;;;19.99;48.16;100466.92;;;;-59
2019/05/24 01:54:13;;;;;;;2.49;2.29;;;;;;;19.99;48.14;100470.91;;;;-60
2019/05/24 01:57:13;;;;;;;2.60;2.40;;;;;;;19.99;48.08;100468.39;;;;-59
2019/05/24 02:00:14;;;;;;;2.52;2.32;;;;;;;19.97;48.08;100467.04;;;;-61
2019/05/24 02:03:13;;;;;;;2.63;2.43;;;;;;;19.97;48.06;100466.30;;;;-60
2019/05/24 02:06:13;;;;;;;2.62;2.42;;;;;;;19.97;48.09;100464.59;;;;-60
2019/05/24 02:09:13;;;;;;;2.95;2.37;;;;;;;19.97;48.04;100462.18;;;;-59
2019/05/24 02:12:13;;;;;;;2.48;2.28;;;;;;;19.96;48.09;100458.38;;;;-60
2019/05/24 02:15:12;;;;;;;2.58;2.38;;;;;;;19.95;48.09;100449.89;;;;-60
2019/05/24 02:18:13;;;;;;;2.53;2.33;;;;;;;19.95;48.06;100448.62;;;;-59
2019/05/24 02:21:13;;;;;;;2.50;2.30;;;;;;;19.95;48.07;100450.59;;;;-60
2019/05/24 02:24:13;;;;;;;2.49;2.29;;;;;;;19.94;48.02;100447.57;;;;-59
2019/05/24 02:27:13;;;;;;;2.71;2.51;;;;;;;19.94;48.07;100450.02;;;;-60
2019/05/24 02:30:13;;;;;;;2.68;2.48;;;;;;;19.94;48.08;100453.00;;;;-60
2019/05/24 02:33:13;;;;;;;2.61;2.41;;;;;;;19.94;48.09;100457.69;;;;-59
2019/05/24 02:36:13;;;;;;;2.59;2.39;;;;;;;19.93;48.03;100454.34;;;;-59
2019/05/24 02:39:13;;;;;;;2.41;2.21;;;;;;;19.93;48.08;100455.41;;;;-60
2019/05/24 02:42:13;;;;;;;2.86;2.41;;;;;;;19.93;48.12;100453.50;;;;-59
2019/05/24 02:45:13;;;;;;;3.16;2.38;;;;;;;19.93;48.05;100455.64;;;;-60
2019/05/24 02:48:13;;;;;;;2.53;2.33;;;;;;;19.92;48.13;100455.77;;;;-50
2019/05/24 02:51:14;;;;;;;2.67;2.23;;;;;;;19.92;48.02;100453.69;;;;-51
2019/05/24 02:54:13;;;;;;;2.53;2.33;;;;;;;19.91;48.01;100452.38;;;;-51
2019/05/24 02:57:13;;;;;;;2.54;2.34;;;;;;;19.91;48.04;100455.31;;;;-50
2019/05/24 03:00:13;;;;;;;2.57;2.37;;;;;;;19.91;48.08;100460.41;;;;-51
2019/05/24 03:04:13;;;;;;;2.86;2.47;;;;;;;19.90;48.09;100461.75;;;;-51
2019/05/24 03:07:13;;;;;;;3.79;2.37;;;;;;;19.90;48.02;100459.87;;;;-51
2019/05/24 03:10:13;;;;;;;2.59;2.39;;;;;;;19.89;48.07;100459.42;;;;-51
2019/05/24 03:13:13;;;;;;;2.67;2.41;;;;;;;19.90;48.06;100456.61;;;;-51
2019/05/24 03:16:13;;;;;;;2.49;2.29;;;;;;;19.88;48.03;100454.80;;;;-53
2019/05/24 03:19:13;;;;;;;2.95;2.44;;;;;;;19.88;48.08;100459.32;;;;-53
2019/05/24 03:22:13;;;;;;;2.50;2.30;;;;;;;19.88;48.03;100457.14;;;;-53
2019/05/24 03:25:13;;;;;;;2.64;2.39;;;;;;;19.88;48.02;100457.53;;;;-53
2019/05/24 03:28:13;;;;;;;2.50;2.30;;;;;;;19.87;48.05;100454.71;;;;-53
2019/05/24 03:31:12;;;;;;;2.59;2.39;;;;;;;19.87;48.05;100455.59;;;;-53
2019/05/24 03:34:13;;;;;;;2.51;2.31;;;;;;;19.87;48.09;100455.31;;;;-53
2019/05/24 03:37:13;;;;;;;2.33;2.16;;;;;;;19.86;48.00;100451.02;;;;-53
2019/05/24 03:40:13;;;;;;;2.53;2.33;;;;;;;19.86;48.04;100451.82;;;;-53
2019/05/24 03:43:13;;;;;;;2.46;2.27;;;;;;;19.86;48.01;100452.42;;;;-53
2019/05/24 03:46:13;;;;;;;2.45;2.25;;;;;;;19.85;48.02;100456.23;;;;-53
2019/05/24 03:49:13;;;;;;;2.47;2.27;;;;;;;19.85;48.05;100462.71;;;;-53
2019/05/24 03:52:13;;;;;;;2.45;2.25;;;;;;;19.85;48.00;100463.61;;;;-53
2019/05/24 03:55:13;;;;;;;2.53;2.33;;;;;;;19.85;48.07;100465.12;;;;-53
2019/05/24 03:58:13;;;;;;;2.38;2.18;;;;;;;19.84;47.97;100466.19;;;;-54
2019/05/24 04:01:13;;;;;;;2.58;2.38;;;;;;;19.84;47.98;100466.86;;;;-53
2019/05/24 04:04:13;;;;;;;2.61;2.41;;;;;;;19.84;48.01;100467.09;;;;-53
2019/05/24 04:07:13;;;;;;;2.46;2.26;;;;;;;19.84;48.00;100466.31;;;;-53
2019/05/24 04:10:13;;;;;;;2.57;2.37;;;;;;;19.83;47.93;100471.91;;;;-53
2019/05/24 04:13:13;;;;;;;2.52;2.32;;;;;;;19.83;48.03;100470.33;;;;-53
2019/05/24 04:16:13;;;;;;;2.53;2.33;;;;;;;19.83;47.98;100467.22;;;;-54
2019/05/24 04:19:13;;;;;;;2.39;2.22;;;;;;;19.83;47.97;100469.89;;;;-53
2019/05/24 04:22:13;;;;;;;2.40;2.20;;;;;;;19.83;48.01;100471.91;;;;-53
2019/05/24 04:25:13;;;;;;;2.51;2.31;;;;;;;19.83;47.94;100472.58;;;;-53
2019/05/24 04:28:13;;;;;;;2.42;2.22;;;;;;;19.83;48.01;100470.56;;;;-53
2019/05/24 04:31:13;;;;;;;2.53;2.34;;;;;;;19.82;48.02;100469.78;;;;-53
2019/05/24 04:34:13;;;;;;;2.49;2.29;;;;;;;19.82;48.03;100468.78;;;;-53
2019/05/24 04:37:13;;;;;;;2.44;2.23;;;;;;;19.81;48.00;100470.58;;;;-54
2019/05/24 04:40:13;;;;;;;2.50;2.30;;;;;;;19.82;47.96;100463.41;;;;-50
2019/05/24 04:43:13;;;;;;;2.60;2.40;;;;;;;19.82;48.02;100465.92;;;;-52
2019/05/24 04:46:13;;;;;;;2.40;2.20;;;;;;;19.82;47.96;100468.00;;;;-51
2019/05/24 04:49:13;;;;;;;2.41;2.22;;;;;;;19.82;48.00;100468.17;;;;-51
2019/05/24 04:52:13;;;;;;;2.54;2.34;;;;;;;19.81;47.96;100462.09;;;;-51
2019/05/24 04:55:13;;;;;;;2.48;2.28;;;;;;;19.81;48.04;100462.09;;;;-51
2019/05/24 04:58:12;;;;;;;2.69;2.49;;;;;;;19.81;48.03;100462.27;;;;-51
2019/05/24 05:01:13;;;;;;;2.41;2.21;;;;;;;19.82;47.97;100460.97;;;;-51
2019/05/24 05:04:13;;;;;;;2.37;2.20;;;;;;;19.81;47.93;100462.03;;;;-51
2019/05/24 05:07:13;;;;;;;3.95;3.12;;;;;;;19.74;48.08;100465.75;;;;-46
2019/05/24 05:10:13;;;;;;;5.30;3.59;;;;;;;19.72;48.13;100463.98;;;;-50
2019/05/24 05:13:13;;;;;;;6.99;3.60;;;;;;;19.71;48.23;100470.58;;;;-50
2019/05/24 05:16:13;;;;;;;6.18;4.07;;;;;;;19.69;48.21;100474.04;;;;-51
2019/05/24 05:19:13;;;;;;;5.97;4.32;;;;;;;19.65;48.24;100475.02;;;;-51
2019/05/24 05:22:13;;;;;;;5.09;4.59;;;;;;;19.64;48.35;100473.52;;;;-56
2019/05/24 05:25:13;;;;;;;10.43;4.61;;;;;;;19.64;48.66;100479.48;;;;-51
2019/05/24 05:28:13;;;;;;;7.85;4.65;;;;;;;19.65;48.47;100479.16;;;;-59
2019/05/24 05:31:13;;;;;;;5.75;4.47;;;;;;;19.63;48.49;100478.27;;;;-49
2019/05/24 05:34:13;;;;;;;6.70;4.60;;;;;;;19.61;48.59;100478.52;;;;-60
2019/05/24 05:37:13;;;;;;;7.77;4.84;;;;;;;19.63;48.69;100483.53;;;;-53
2019/05/24 05:40:13;;;;;;;8.07;4.48;;;;;;;19.71;48.95;100490.71;;;;-49
2019/05/24 05:43:13;;;;;;;9.25;4.37;;;;;;;19.76;49.02;100491.14;;;;-50
2019/05/24 05:46:13;;;;;;;6.67;4.41;;;;;;;19.81;48.98;100492.44;;;;-52
2019/05/24 05:49:13;;;;;;;6.03;4.27;;;;;;;19.84;48.96;100490.72;;;;-49
2019/05/24 05:52:13;;;;;;;5.09;3.95;;;;;;;19.86;48.99;100487.39;;;;-48
2019/05/24 05:55:13;;;;;;;5.82;4.06;;;;;;;19.90;49.17;100489.23;;;;-49
2019/05/24 05:58:13;;;;;;;5.15;3.73;;;;;;;19.92;49.21;100481.61;;;;-51
2019/05/24 06:01:13;;;;;;;5.32;3.61;;;;;;;19.95;49.21;100479.23;;;;-49
2019/05/24 06:04:13;;;;;;;6.03;3.89;;;;;;;19.99;49.36;100480.17;;;;-52
2019/05/24 06:07:13;;;;;;;6.51;3.90;;;;;;;20.01;49.51;100477.73;;;;-52
2019/05/24 06:10:13;;;;;;;6.35;3.76;;;;;;;20.03;49.40;100475.55;;;;-53
2019/05/24 06:13:13;;;;;;;9.10;4.12;;;;;;;20.05;49.43;100473.02;;;;-53
2019/05/24 06:16:13;;;;;;;6.64;3.71;;;;;;;20.07;49.50;100475.71;;;;-52
2019/05/24 06:19:13;;;;;;;8.90;4.01;;;;;;;20.09;49.74;100474.45;;;;-53
2019/05/24 06:22:13;;;;;;;8.00;3.79;;;;;;;20.11;49.59;100476.79;;;;-49
2019/05/24 06:25:13;;;;;;;9.83;3.82;;;;;;;20.13;49.78;100483.18;;;;-51
2019/05/24 06:28:13;;;;;;;8.56;3.68;;;;;;;20.14;49.77;100481.70;;;;-50
2019/05/24 06:31:13;;;;;;;11.25;3.68;;;;;;;20.15;49.96;100487.45;;;;-54
2019/05/24 06:34:13;;;;;;;7.58;3.71;;;;;;;20.17;49.91;100488.27;;;;-49
2019/05/24 06:37:13;;;;;;;9.47;3.59;;;;;;;20.18;49.66;100490.09;;;;-49
2019/05/24 06:40:13;;;;;;;7.59;3.43;;;;;;;20.19;49.94;100491.37;;;;-51
2019/05/24 06:43:13;;;;;;;6.14;3.50;;;;;;;20.21;49.68;100489.78;;;;-50
2019/05/24 06:46:13;;;;;;;6.71;3.62;;;;;;;20.23;49.72;100488.30;;;;-51
2019/05/24 06:49:13;;;;;;;9.18;3.78;;;;;;;20.22;49.60;100485.30;;;;-51
2019/05/24 06:52:13;;;;;;;10.93;3.95;;;;;;;20.25;49.66;100486.73;;;;-49
2019/05/24 06:55:13;;;;;;;6.89;3.41;;;;;;;20.27;49.65;100486.81;;;;-49
2019/05/24 06:58:13;;;;;;;6.59;3.61;;;;;;;20.28;49.72;100486.02;;;;-52
2019/05/24 07:01:13;;;;;;;6.03;3.47;;;;;;;20.29;49.73;100481.53;;;;-60
2019/05/24 07:04:13;;;;;;;6.30;3.38;;;;;;;20.29;49.61;100483.18;;;;-48
2019/05/24 07:07:13;;;;;;;17.29;4.11;;;;;;;20.30;49.81;100483.12;;;;-51
2019/05/24 07:10:13;;;;;;;10.00;3.75;;;;;;;20.32;49.95;100482.42;;;;-59
2019/05/24 07:13:13;;;;;;;8.55;3.58;;;;;;;20.33;49.73;100479.28;;;;-57
2019/05/24 07:16:13;;;;;;;14.65;3.76;;;;;;;20.33;49.60;100481.06;;;;-52
2019/05/24 07:19:13;;;;;;;7.52;3.69;;;;;;;20.34;49.66;100482.95;;;;-54
2019/05/24 07:22:13;;;;;;;10.01;3.73;;;;;;;20.34;49.60;100479.59;;;;-54
2019/05/24 07:25:13;;;;;;;9.32;3.63;;;;;;;20.37;49.49;100482.73;;;;-57
2019/05/24 07:28:13;;;;;;;15.65;3.79;;;;;;;20.36;49.65;100480.24;;;;-58
2019/05/24 07:31:13;;;;;;;11.61;3.60;;;;;;;20.35;49.61;100481.48;;;;-59
2019/05/24 07:34:13;;;;;;;9.03;3.29;;;;;;;20.36;49.57;100486.79;;;;-53
2019/05/24 07:37:13;;;;;;;8.00;3.43;;;;;;;20.35;49.28;100481.14;;;;-53
2019/05/24 07:40:13;;;;;;;9.06;3.42;;;;;;;20.34;49.37;100480.66;;;;-53
2019/05/24 07:43:13;;;;;;;5.69;3.31;;;;;;;20.32;49.31;100481.59;;;;-53
2019/05/24 07:46:13;;;;;;;12.51;3.71;;;;;;;20.32;49.16;100482.77;;;;-52
2019/05/24 07:49:13;;;;;;;9.43;3.22;;;;;;;20.31;49.10;100479.54;;;;-52
2019/05/24 07:52:13;;;;;;;9.61;3.33;;;;;;;20.31;49.06;100478.70;;;;-52
2019/05/24 07:55:13;;;;;;;6.72;3.26;;;;;;;20.32;49.01;100478.23;;;;-52
2019/05/24 07:58:13;;;;;;;7.90;3.20;;;;;;;20.32;48.97;100475.89;;;;-52
2019/05/24 08:01:13;;;;;;;6.54;3.25;;;;;;;20.33;48.84;100474.09;;;;-52
2019/05/24 08:04:13;;;;;;;8.94;3.33;;;;;;;20.34;48.67;100473.39;;;;-52
2019/05/24 08:07:13;;;;;;;5.91;3.07;;;;;;;20.35;48.78;100468.06;;;;-53
2019/05/24 08:10:13;;;;;;;8.93;3.07;;;;;;;20.36;48.66;100466.27;;;;-53
2019/05/24 08:13:13;;;;;;;6.39;2.88;;;;;;;20.39;48.57;100465.61;;;;-52
2019/05/24 08:16:13;;;;;;;5.30;2.94;;;;;;;20.39;48.56;100463.70;;;;-53
2019/05/24 08:19:12;;;;;;;4.14;2.96;;;;;;;20.40;48.51;100460.55;;;;-53
2019/05/24 08:22:14;;;;;;;7.39;3.11;;;;;;;20.41;48.46;100458.31;;;;-53
2019/05/24 08:25:13;;;;;;;6.05;2.92;;;;;;;20.43;48.58;100451.52;;;;-52
2019/05/24 08:28:13;;;;;;;5.65;2.85;;;;;;;20.43;48.45;100453.19;;;;-52
2019/05/24 08:31:13;;;;;;;3.72;2.81;;;;;;;20.44;48.41;100454.91;;;;-52
2019/05/24 08:34:13;;;;;;;3.69;2.63;;;;;;;20.44;48.33;100449.94;;;;-52
2019/05/24 08:37:13;;;;;;;5.42;3.01;;;;;;;20.43;48.35;100453.13;;;;-52
2019/05/24 08:40:13;;;;;;;4.17;2.69;;;;;;;20.45;48.22;100453.94;;;;-52
2019/05/24 08:43:13;;;;;;;5.81;2.78;;;;;;;20.45;48.36;100455.62;;;;-52
2019/05/24 08:46:13;;;;;;;6.52;2.64;;;;;;;20.44;48.37;100456.08;;;;-52
2019/05/24 08:49:13;;;;;;;4.95;2.81;;;;;;;20.44;48.28;100456.15;;;;-52
2019/05/24 08:52:13;;;;;;;4.23;2.95;;;;;;;20.44;48.25;100458.20;;;;-52
2019/05/24 08:55:13;;;;;;;7.49;2.69;;;;;;;20.44;48.21;100452.80;;;;-52
2019/05/24 08:58:13;;;;;;;4.69;2.79;;;;;;;20.44;48.17;100454.91;;;;-52
2019/05/24 09:01:13;;;;;;;3.91;2.63;;;;;;;20.44;48.20;100448.27;;;;-52
2019/05/24 09:04:13;;;;;;;4.28;2.66;;;;;;;20.43;48.12;100449.06;;;;-52
2019/05/24 09:07:13;;;;;;;5.67;2.73;;;;;;;20.43;48.14;100444.53;;;;-52
2019/05/24 09:10:13;;;;;;;4.36;2.59;;;;;;;20.43;48.10;100444.13;;;;-52
2019/05/24 09:13:12;;;;;;;3.47;2.69;;;;;;;20.42;48.09;100436.48;;;;-53
2019/05/24 09:16:13;;;;;;;3.29;2.64;;;;;;;20.42;48.16;100442.48;;;;-52
2019/05/24 09:19:13;;;;;;;4.25;2.72;;;;;;;20.41;48.10;100436.50;;;;-53
2019/05/24 09:22:12;;;;;;;4.68;2.80;;;;;;;20.41;48.04;100431.23;;;;-53
2019/05/24 09:25:13;;;;;;;3.72;2.59;;;;;;;20.41;48.03;100433.05;;;;-52
2019/05/24 09:28:13;;;;;;;4.61;2.59;;;;;;;20.41;48.09;100431.64;;;;-52
2019/05/24 09:31:13;;;;;;;3.45;2.57;;;;;;;20.40;48.03;100427.73;;;;-52
2019/05/24 09:34:13;;;;;;;2.82;2.53;;;;;;;20.39;48.07;100429.38;;;;-52
2019/05/24 09:37:12;;;;;;;2.81;2.50;;;;;;;20.38;48.00;100424.98;;;;-52
2019/05/24 09:40:19;;;;;;;3.43;2.45;;;;;;;20.38;48.00;100424.31;;;;-52
2019/05/24 09:43:13;;;;;;;2.91;2.45;;;;;;;20.37;48.00;100424.03;;;;-52
2019/05/24 09:46:13;;;;;;;2.73;2.45;;;;;;;20.37;47.96;100423.76;;;;-52
2019/05/24 09:49:13;;;;;;;3.43;2.59;;;;;;;20.35;48.06;100418.92;;;;-52
2019/05/24 09:52:13;;;;;;;3.19;2.59;;;;;;;20.36;48.05;100418.52;;;;-52
2019/05/24 09:55:13;;;;;;;3.46;2.49;;;;;;;20.35;48.07;100419.99;;;;-52
2019/05/24 09:58:13;;;;;;;3.57;2.58;;;;;;;20.34;48.06;100419.38;;;;-53
2019/05/24 10:01:13;;;;;;;4.00;2.36;;;;;;;20.34;48.10;100412.84;;;;-52
2019/05/24 10:04:13;;;;;;;3.39;2.38;;;;;;;20.33;48.00;100410.45;;;;-52
2019/05/24 10:07:13;;;;;;;4.04;2.44;;;;;;;20.33;48.00;100411.02;;;;-52
2019/05/24 10:10:13;;;;;;;2.61;2.39;;;;;;;20.32;48.08;100405.61;;;;-52
2019/05/24 10:13:13;;;;;;;3.24;2.37;;;;;;;20.32;48.03;100405.84;;;;-52
2019/05/24 10:16:12;;;;;;;2.85;2.33;;;;;;;20.31;48.11;100403.73;;;;-52
2019/05/24 10:19:13;;;;;;;3.53;2.40;;;;;;;20.30;48.11;100406.30;;;;-52
2019/05/24 10:22:13;;;;;;;2.66;2.46;;;;;;;20.30;48.05;100406.94;;;;-52
2019/05/24 10:25:13;;;;;;;2.59;2.39;;;;;;;20.30;48.04;100407.11;;;;-52
2019/05/24 10:28:13;;;;;;;2.87;2.37;;;;;;;20.29;48.06;100401.57;;;;-52
2019/05/24 10:31:13;;;;;;;3.23;2.34;;;;;;;20.28;48.12;100408.06;;;;-52
2019/05/24 10:34:13;;;;;;;3.01;2.52;;;;;;;20.28;48.07;100407.30;;;;-52
2019/05/24 10:37:13;;;;;;;4.09;2.32;;;;;;;20.27;48.06;100402.80;;;;-52
2019/05/24 10:40:13;;;;;;;3.02;2.29;;;;;;;20.27;48.08;100404.41;;;;-52
2019/05/24 10:43:13;;;;;;;4.11;2.54;;;;;;;20.27;48.15;100405.91;;;;-52
2019/05/24 10:46:13;;;;;;;2.50;2.30;;;;;;;20.26;48.08;100397.22;;;;-52
2019/05/24 10:49:13;;;;;;;3.54;2.49;;;;;;;20.24;48.11;100393.92;;;;-52
2019/05/24 10:52:12;;;;;;;3.25;2.19;;;;;;;20.25;48.19;100394.09;;;;-52
2019/05/24 10:55:13;;;;;;;3.06;2.27;;;;;;;20.24;48.10;100394.26;;;;-52
2019/05/24 10:58:13;;;;;;;2.61;2.30;;;;;;;20.23;48.17;100384.66;;;;-52
2019/05/24 11:01:13;;;;;;;2.72;2.43;;;;;;;20.24;48.20;100388.19;;;;-53
2019/05/24 11:04:13;;;;;;;3.24;2.40;;;;;;;20.24;48.34;100381.81;;;;-51
2019/05/24 11:07:13;;;;;;;3.03;2.39;;;;;;;20.25;48.32;100380.72;;;;-53
2019/05/24 11:10:13;;;;;;;3.79;2.46;;;;;;;20.26;48.24;100379.31;;;;-53
2019/05/24 11:13:13;;;;;;;2.37;2.15;;;;;;;20.24;48.25;100375.70;;;;-53
2019/05/24 11:16:13;;;;;;;3.11;2.31;;;;;;;20.26;48.16;100377.53;;;;-53
2019/05/24 11:19:14;;;;;;;3.78;2.35;;;;;;;20.26;48.22;100375.58;;;;-54
2019/05/24 11:22:13;;;;;;;3.11;2.40;;;;;;;20.25;48.26;100373.67;;;;-54
2019/05/24 11:25:13;;;;;;;3.62;2.36;;;;;;;20.25;48.21;100376.16;;;;-51
2019/05/24 11:28:12;;;;;;;2.47;2.27;;;;;;;20.24;48.21;100372.92;;;;-51
2019/05/24 11:31:13;;;;;;;3.34;2.31;;;;;;;20.24;48.18;100371.45;;;;-51
2019/05/24 11:34:12;;;;;;;2.53;2.32;;;;;;;20.24;48.21;100365.21;;;;-51
2019/05/24 11:37:13;;;;;;;3.03;2.35;;;;;;;20.24;48.15;100357.77;;;;-51
2019/05/24 11:40:13;;;;;;;2.75;2.45;;;;;;;20.24;48.18;100356.99;;;;-51
2019/05/24 11:43:13;;;;;;;2.36;2.16;;;;;;;20.24;48.19;100359.71;;;;-52
2019/05/24 11:46:13;;;;;;;3.39;2.39;;;;;;;20.23;48.20;100349.61;;;;-51
2019/05/24 11:49:13;;;;;;;2.61;2.27;;;;;;;20.24;48.16;100355.08;;;;-50
2019/05/24 11:52:13;;;;;;;2.36;2.16;;;;;;;20.23;48.14;100350.91;;;;-51
2019/05/24 11:55:13;;;;;;;2.70;2.30;;;;;;;20.23;48.17;100346.66;;;;-51
2019/05/24 11:58:12;;;;;;;2.86;2.29;;;;;;;20.23;48.18;100341.45;;;;-52
2019/05/24 12:01:13;;;;;;;2.35;2.15;;;;;;;20.22;48.11;100343.70;;;;-60
2019/05/24 12:04:13;;;;;;;2.52;2.19;;;;;;;20.21;48.20;100345.51;;;;-59
2019/05/24 12:07:13;;;;;;;2.58;2.16;;;;;;;20.21;48.20;100346.02;;;;-58
2019/05/24 12:10:13;;;;;;;3.03;2.15;;;;;;;20.22;48.11;100345.78;;;;-58
2019/05/24 12:13:13;;;;;;;2.39;2.19;;;;;;;20.21;48.10;100342.66;;;;-58
2019/05/24 12:16:13;;;;;;;2.41;2.20;;;;;;;20.21;48.10;100345.84;;;;-58
2019/05/24 12:19:13;;;;;;;2.43;2.23;;;;;;;20.21;48.10;100345.81;;;;-58
2019/05/24 12:22:13;;;;;;;3.09;2.39;;;;;;;20.21;48.11;100340.27;;;;-60
2019/05/24 12:25:13;;;;;;;4.53;2.23;;;;;;;20.20;48.09;100339.77;;;;-53
2019/05/24 12:28:13;;;;;;;4.69;2.25;;;;;;;20.21;48.25;100343.50;;;;-51
2019/05/24 12:31:13;;;;;;;9.43;2.66;;;;;;;20.23;48.38;100346.33;;;;-50
2019/05/24 12:34:13;;;;;;;5.52;2.41;;;;;;;20.23;48.43;100342.06;;;;-48
2019/05/24 12:37:13;;;;;;;5.36;2.43;;;;;;;20.26;48.59;100343.72;;;;-56
2019/05/24 12:40:13;;;;;;;6.48;2.28;;;;;;;20.29;48.53;100338.64;;;;-60
2019/05/24 12:43:13;;;;;;;2.83;2.08;;;;;;;20.30;48.57;100344.15;;;;-61
2019/05/24 12:46:13;;;;;;;3.36;2.33;;;;;;;20.31;48.55;100337.31;;;;-60
2019/05/24 12:49:13;;;;;;;5.22;2.20;;;;;;;20.32;48.55;100337.35;;;;-51
2019/05/24 12:52:13;;;;;;;4.03;2.45;;;;;;;20.32;48.57;100335.11;;;;-58
2019/05/24 12:55:13;;;;;;;5.23;2.34;;;;;;;20.33;48.51;100336.22;;;;-51
2019/05/24 12:58:13;;;;;;;3.31;2.17;;;;;;;20.33;48.62;100335.48;;;;-59
2019/05/24 13:01:12;;;;;;;2.67;2.19;;;;;;;20.34;48.59;100331.83;;;;-53
2019/05/24 13:04:13;;;;;;;2.46;2.20;;;;;;;20.35;48.49;100334.55;;;;-49
2019/05/24 13:10:22;;;;;;;3.01;2.25;;;;;;;20.51;48.20;100330.30;;;;-48
2019/05/24 13:14:59;;;;;;;3.88;2.30;;;;;;;20.61;48.07;100326.69;;;;-48
2019/05/24 13:17:59;;;;;;;4.51;2.10;;;;;;;20.66;47.89;100325.47;;;;-53
2019/05/24 13:20:59;;;;;;;7.07;2.36;;;;;;;20.71;47.89;100323.64;;;;-52
2019/05/24 13:23:59;;;;;;;3.57;2.19;;;;;;;20.74;47.84;100325.44;;;;-51
2019/05/24 13:26:59;;;;;;;4.25;2.57;;;;;;;20.76;47.81;100319.53;;;;-53
2019/05/24 13:29:59;;;;;;;4.17;2.24;;;;;;;20.79;47.73;100321.09;;;;-50
2019/05/24 13:32:59;;;;;;;3.02;2.08;;;;;;;20.83;47.62;100321.97;;;;-51
2019/05/24 13:35:59;;;;;;;2.90;2.31;;;;;;;20.85;47.64;100318.05;;;;-51
2019/05/24 13:38:59;;;;;;;3.04;2.04;;;;;;;20.87;47.57;100319.03;;;;-52
2019/05/24 13:41:59;;;;;;;3.27;2.07;;;;;;;20.89;47.54;100309.88;;;;-53
2019/05/24 13:47:56;;;;;;;3.51;2.35;;;;;;;20.68;47.83;100318.83;;;;-57
2019/05/24 13:50:56;;;;;;;2.75;2.09;;;;;;;20.61;48.04;100313.44;;;;-55
2019/05/24 13:53:56;;;;;;;2.88;2.17;;;;;;;20.54;48.11;100315.83;;;;-56
2019/05/24 13:56:56;;;;;;;3.05;2.07;;;;;;;20.52;48.15;100319.30;;;;-56
2019/05/24 13:59:56;;;;;;;2.95;2.14;;;;;;;20.49;48.22;100314.77;;;;-56
2019/05/24 14:02:57;;;;;;;2.81;2.21;;;;;;;20.46;48.22;100312.50;;;;-55
2019/05/24 14:05:56;;;;;;;3.85;2.11;;;;;;;20.45;48.21;100313.70;;;;-57
2019/05/24 14:08:56;;;;;;;2.33;2.11;;;;;;;20.44;48.26;100311.82;;;;-55
2019/05/24 14:11:56;;;;;;;3.34;2.08;;;;;;;20.43;48.18;100309.27;;;;-56
2019/05/24 14:14:56;;;;;;;3.87;2.08;;;;;;;20.42;48.21;100305.64;;;;-56
2019/05/24 14:17:56;;;;;;;2.36;1.99;;;;;;;20.41;48.18;100303.65;;;;-56
2019/05/24 14:20:56;;;;;;;2.33;1.91;;;;;;;20.41;48.18;100299.13;;;;-56
2019/05/24 14:23:56;;;;;;;2.80;2.02;;;;;;;20.39;48.17;100295.45;;;;-56
2019/05/24 14:26:56;;;;;;;3.24;1.91;;;;;;;20.39;48.19;100297.37;;;;-56
2019/05/24 14:29:56;;;;;;;5.94;2.13;;;;;;;20.37;48.18;100293.20;;;;-56
2019/05/24 14:32:56;;;;;;;2.49;1.90;;;;;;;20.36;48.19;100291.16;;;;-57
2019/05/24 14:35:56;;;;;;;4.36;2.23;;;;;;;20.36;48.14;100288.20;;;;-56
2019/05/24 14:38:56;;;;;;;2.29;1.98;;;;;;;20.36;48.17;100284.11;;;;-56
2019/05/24 14:41:56;;;;;;;2.39;1.83;;;;;;;20.34;48.15;100279.50;;;;-55
2019/05/24 14:44:56;;;;;;;3.41;1.91;;;;;;;20.34;48.13;100279.50;;;;-56
2019/05/24 14:47:56;;;;;;;2.51;2.00;;;;;;;20.34;48.15;100279.33;;;;-56
2019/05/24 14:50:56;;;;;;;2.53;2.00;;;;;;;20.32;48.15;100279.42;;;;-56
2019/05/24 14:53:56;;;;;;;3.01;1.90;;;;;;;20.32;48.19;100283.45;;;;-56
2019/05/24 14:56:56;;;;;;;2.43;1.96;;;;;;;20.32;48.16;100281.00;;;;-56
2019/05/24 14:59:56;;;;;;;2.79;1.99;;;;;;;20.31;48.16;100270.56;;;;-55
2019/05/24 15:02:56;;;;;;;3.73;1.97;;;;;;;20.31;48.16;100267.21;;;;-56
2019/05/24 15:06:02;;;;;;;2.58;1.97;;;;;;;20.30;48.10;100264.52;;;;-56
2019/05/24 15:08:56;;;;;;;2.29;1.90;;;;;;;20.30;48.15;100259.86;;;;-51
2019/05/24 15:11:56;;;;;;;2.82;1.87;;;;;;;20.29;48.14;100258.62;;;;-62
2019/05/24 15:14:56;;;;;;;2.50;2.10;;;;;;;20.29;48.16;100258.95;;;;-62
2019/05/24 15:17:56;;;;;;;2.89;1.78;;;;;;;20.29;48.16;100257.14;;;;-52
2019/05/24 15:20:56;;;;;;;5.03;2.20;;;;;;;20.31;48.46;100249.10;;;;-55
2019/05/24 15:23:56;;;;;;;3.53;2.12;;;;;;;20.34;48.41;100249.72;;;;-57
2019/05/24 15:26:56;;;;;;;4.03;1.95;;;;;;;20.35;48.68;100245.33;;;;-53
2019/05/24 15:29:56;;;;;;;5.75;2.17;;;;;;;20.38;48.59;100245.61;;;;-51
2019/05/24 15:32:56;;;;;;;6.73;2.20;;;;;;;20.39;48.67;100244.81;;;;-51
2019/05/24 15:35:56;;;;;;;7.37;2.22;;;;;;;20.42;48.87;100244.37;;;;-57
2019/05/24 15:38:56;;;;;;;5.77;2.07;;;;;;;20.43;48.81;100237.14;;;;-65
2019/05/24 15:41:57;;;;;;;3.16;2.07;;;;;;;20.43;48.89;100238.08;;;;-59
2019/05/24 15:44:56;;;;;;;3.39;2.00;;;;;;;20.44;48.93;100233.31;;;;-63
2019/05/24 15:47:56;;;;;;;5.29;2.15;;;;;;;20.45;48.89;100231.95;;;;-57
2019/05/24 15:50:56;;;;;;;11.81;2.34;;;;;;;20.47;49.12;100232.99;;;;-50
2019/05/24 15:53:56;;;;;;;11.53;2.57;;;;;;;20.48;48.92;100235.91;;;;-53
2019/05/24 15:56:56;;;;;;;8.07;2.20;;;;;;;20.48;48.98;100234.41;;;;-51
2019/05/24 15:59:56;;;;;;;9.33;2.39;;;;;;;20.49;49.04;100224.61;;;;-60
2019/05/24 16:02:56;;;;;;;7.29;2.33;;;;;;;20.50;48.98;100228.91;;;;-57
2019/05/24 16:05:56;;;;;;;5.05;2.11;;;;;;;20.50;48.96;100230.18;;;;-65
2019/05/24 16:08:56;;;;;;;5.03;2.18;;;;;;;20.51;48.92;100229.81;;;;-50
2019/05/24 16:11:56;;;;;;;8.20;2.20;;;;;;;20.51;48.88;100220.92;;;;-63
2019/05/24 16:14:57;;;;;;;10.95;2.36;;;;;;;20.52;49.16;100216.59;;;;-48
2019/05/24 16:17:56;;;;;;;24.73;3.11;;;;;;;20.55;49.40;100211.74;;;;-59
2019/05/24 16:20:56;;;;;;;10.96;2.51;;;;;;;20.60;49.41;100215.28;;;;-61
2019/05/24 16:23:56;;;;;;;5.99;2.32;;;;;;;20.65;49.33;100214.92;;;;-61
2019/05/24 16:26:56;;;;;;;12.22;2.31;;;;;;;20.71;49.25;100213.55;;;;-63
2019/05/24 16:29:56;;;;;;;20.37;2.80;;;;;;;20.73;48.90;100211.68;;;;-63
2019/05/24 16:32:56;;;;;;;12.17;2.55;;;;;;;20.77;49.35;100210.14;;;;-62
2019/05/24 16:35:56;;;;;;;8.51;2.49;;;;;;;20.81;49.15;100211.16;;;;-63
2019/05/24 16:38:56;;;;;;;14.81;2.74;;;;;;;20.80;49.03;100203.73;;;;-55
2019/05/24 16:41:56;;;;;;;13.38;2.49;;;;;;;20.79;48.95;100203.84;;;;-62
2019/05/24 16:44:56;;;;;;;10.39;2.39;;;;;;;20.76;49.02;100200.48;;;;-51
2019/05/24 16:47:56;;;;;;;5.42;2.41;;;;;;;20.77;49.02;100202.76;;;;-51
2019/05/24 16:50:56;;;;;;;6.32;2.10;;;;;;;20.75;48.92;100204.47;;;;-51
2019/05/24 16:53:56;;;;;;;7.77;2.33;;;;;;;20.73;48.86;100204.30;;;;-54